sensor_id;sensor_type;location;lat;lon;timestamp;pressure;altitude;pressure_sealevel;temperature;humidity
36598;BME280;22607;49.550;11.940;2022-12-11T00:00:43;96009.06;;;-0.62;100.00
36598;BME280;22607;49.550;11.940;2022-12-11T00:03:10;95998.75;;;-0.62;100.00
36598;BME280;22607;49.550;11.940;2022-12-11T00:05:41;96001.13;;;-0.70;100.00
36598;BME280;22607;49.550;11.940;2022-12-11T00:08:10;96002.00;;;-0.60;100.00
36598;BME280;22607;49.550;11.940;2022-12-11T00:10:37;96000.50;;;-0.62;100.00
36598;BME280;22607;49.550;11.940;2022-12-11T00:13:03;96002.13;;;-0.61;100.00
36598;BME280;22607;49.550;11.940;2022-12-11T00:15:30;95997.13;;;-0.63;100.00
36598;BME280;22607;49.550;11.940;2022-12-11T00:17:58;95999.81;;;-0.64;100.00
36598;BME280;22607;49.550;11.940;2022-12-11T00:20:24;95994.28;;;-0.60;100.00
36598;BME280;22607;49.550;11.940;2022-12-11T00:22:50;96000.50;;;-0.62;100.00
36598;BME280;22607;49.550;11.940;2022-12-11T00:25:17;96000.88;;;-0.67;100.00
36598;BME280;22607;49.550;11.940;2022-12-11T00:27:44;95998.97;;;-0.65;100.00
36598;BME280;22607;49.550;11.940;2022-12-11T00:30:10;96000.03;;;-0.68;100.00
36598;BME280;22607;49.550;11.940;2022-12-11T00:32:37;96000.38;;;-0.61;100.00
36598;BME280;22607;49.550;11.940;2022-12-11T00:35:03;96007.44;;;-0.63;100.00
36598;BME280;22607;49.550;11.940;2022-12-11T00:37:30;96017.31;;;-0.80;100.00
36598;BME280;22607;49.550;11.940;2022-12-11T00:39:58;96008.16;;;-0.72;100.00
36598;BME280;22607;49.550;11.940;2022-12-11T00:42:25;96018.84;;;-0.77;100.00
36598;BME280;22607;49.550;11.940;2022-12-11T00:44:51;96020.34;;;-0.74;100.00
36598;BME280;22607;49.550;11.940;2022-12-11T00:47:18;96015.19;;;-0.74;100.00
36598;BME280;22607;49.550;11.940;2022-12-11T00:49:45;96016.13;;;-0.75;100.00
36598;BME280;22607;49.550;11.940;2022-12-11T00:52:15;96022.25;;;-0.76;100.00
36598;BME280;22607;49.550;11.940;2022-12-11T00:54:43;96020.84;;;-0.81;100.00
36598;BME280;22607;49.550;11.940;2022-12-11T00:57:09;96020.84;;;-0.81;100.00
36598;BME280;22607;49.550;11.940;2022-12-11T00:59:36;96031.16;;;-0.81;100.00
36598;BME280;22607;49.550;11.940;2022-12-11T01:02:02;96039.25;;;-0.85;100.00
36598;BME280;22607;49.550;11.940;2022-12-11T01:04:31;96039.97;;;-0.95;100.00
36598;BME280;22607;49.550;11.940;2022-12-11T01:06:57;96034.72;;;-1.04;100.00
36598;BME280;22607;49.550;11.940;2022-12-11T01:09:23;96036.56;;;-1.07;100.00
36598;BME280;22607;49.550;11.940;2022-12-11T01:12:28;96045.47;;;-1.11;100.00
36598;BME280;22607;49.550;11.940;2022-12-11T01:14:56;96046.91;;;-1.18;100.00
36598;BME280;22607;49.550;11.940;2022-12-11T01:17:22;96056.75;;;-1.23;100.00
36598;BME280;22607;49.550;11.940;2022-12-11T01:19:49;96051.72;;;-1.25;100.00
36598;BME280;22607;49.550;11.940;2022-12-11T01:22:18;96055.47;;;-1.29;100.00
36598;BME280;22607;49.550;11.940;2022-12-11T01:24:44;96055.44;;;-1.40;100.00
36598;BME280;22607;49.550;11.940;2022-12-11T01:27:11;96055.69;;;-1.43;100.00
36598;BME280;22607;49.550;11.940;2022-12-11T01:29:37;96054.16;;;-1.35;100.00
36598;BME280;22607;49.550;11.940;2022-12-11T01:32:03;96047.97;;;-1.32;100.00
36598;BME280;22607;49.550;11.940;2022-12-11T01:34:30;96056.28;;;-1.28;100.00
36598;BME280;22607;49.550;11.940;2022-12-11T01:36:57;96052.66;;;-1.26;100.00
36598;BME280;22607;49.550;11.940;2022-12-11T01:39:23;96052.41;;;-1.34;100.00
36598;BME280;22607;49.550;11.940;2022-12-11T01:41:50;96050.53;;;-1.43;100.00
36598;BME280;22607;49.550;11.940;2022-12-11T01:46:47;96045.13;;;-1.40;100.00
36598;BME280;22607;49.550;11.940;2022-12-11T01:49:14;96048.31;;;-1.37;100.00
36598;BME280;22607;49.550;11.940;2022-12-11T01:54:15;96055.25;;;-1.26;100.00
36598;BME280;22607;49.550;11.940;2022-12-11T01:56:42;96053.22;;;-1.34;100.00
36598;BME280;22607;49.550;11.940;2022-12-11T01:59:10;96050.19;;;-1.39;100.00
36598;BME280;22607;49.550;11.940;2022-12-11T02:01:42;96055.56;;;-1.30;100.00
36598;BME280;22607;49.550;11.940;2022-12-11T02:04:10;96053.22;;;-1.34;100.00
36598;BME280;22607;49.550;11.940;2022-12-11T02:06:41;96050.66;;;-1.22;100.00
36598;BME280;22607;49.550;11.940;2022-12-11T02:09:09;96052.19;;;-1.42;100.00
36598;BME280;22607;49.550;11.940;2022-12-11T02:14:19;96046.91;;;-1.29;100.00
36598;BME280;22607;49.550;11.940;2022-12-11T02:17:00;96050.31;;;-1.29;100.00
36598;BME280;22607;49.550;11.940;2022-12-11T02:19:36;96046.44;;;-1.23;100.00
36598;BME280;22607;49.550;11.940;2022-12-11T02:22:10;96049.03;;;-1.23;100.00
36598;BME280;22607;49.550;11.940;2022-12-11T02:29:53;96048.31;;;-1.48;100.00
36598;BME280;22607;49.550;11.940;2022-12-11T02:32:25;96050.88;;;-1.48;100.00
36598;BME280;22607;49.550;11.940;2022-12-11T02:35:01;96047.00;;;-1.31;100.00
36598;BME280;22607;49.550;11.940;2022-12-11T02:37:30;96048.78;;;-1.32;100.00
36598;BME280;22607;49.550;11.940;2022-12-11T02:39:59;96059.78;;;-1.29;100.00
36598;BME280;22607;49.550;11.940;2022-12-11T02:42:28;96058.84;;;-1.40;100.00
36598;BME280;22607;49.550;11.940;2022-12-11T02:44:57;96051.13;;;-1.28;100.00
36598;BME280;22607;49.550;11.940;2022-12-11T02:47:24;96042.72;;;-1.42;100.00
36598;BME280;22607;49.550;11.940;2022-12-11T02:49:52;96042.22;;;-1.36;100.00
36598;BME280;22607;49.550;11.940;2022-12-11T02:52:20;96038.00;;;-1.37;100.00
36598;BME280;22607;49.550;11.940;2022-12-11T02:54:48;96042.81;;;-1.32;100.00
36598;BME280;22607;49.550;11.940;2022-12-11T02:57:22;96035.78;;;-1.30;100.00
36598;BME280;22607;49.550;11.940;2022-12-11T02:59:50;96041.03;;;-1.20;100.00
36598;BME280;22607;49.550;11.940;2022-12-11T03:02:17;96039.88;;;-1.27;100.00
36598;BME280;22607;49.550;11.940;2022-12-11T03:04:46;96040.69;;;-1.27;100.00
36598;BME280;22607;49.550;11.940;2022-12-11T03:07:23;96033.78;;;-1.49;100.00
36598;BME280;22607;49.550;11.940;2022-12-11T03:09:51;96035.06;;;-1.32;100.00
36598;BME280;22607;49.550;11.940;2022-12-11T03:12:19;96032.75;;;-1.35;100.00
36598;BME280;22607;49.550;11.940;2022-12-11T03:14:46;96035.91;;;-1.54;100.00
36598;BME280;22607;49.550;11.940;2022-12-11T03:17:25;96036.59;;;-1.64;100.00
36598;BME280;22607;49.550;11.940;2022-12-11T03:19:59;96040.13;;;-1.65;100.00
36598;BME280;22607;49.550;11.940;2022-12-11T03:22:36;96044.31;;;-1.64;100.00
36598;BME280;22607;49.550;11.940;2022-12-11T03:25:09;96044.91;;;-1.60;100.00
36598;BME280;22607;49.550;11.940;2022-12-11T03:27:47;96046.53;;;-1.70;100.00
36598;BME280;22607;49.550;11.940;2022-12-11T03:30:17;96044.66;;;-1.68;100.00
36598;BME280;22607;49.550;11.940;2022-12-11T03:32:50;96042.69;;;-1.65;100.00
36598;BME280;22607;49.550;11.940;2022-12-11T03:37:44;96045.59;;;-1.69;100.00
36598;BME280;22607;49.550;11.940;2022-12-11T03:40:19;96055.91;;;-1.69;100.00
36598;BME280;22607;49.550;11.940;2022-12-11T03:42:47;96049.22;;;-1.72;100.00
36598;BME280;22607;49.550;11.940;2022-12-11T03:45:15;96052.00;;;-1.75;100.00
36598;BME280;22607;49.550;11.940;2022-12-11T03:47:44;96056.22;;;-1.86;100.00
36598;BME280;22607;49.550;11.940;2022-12-11T03:50:11;96050.75;;;-1.81;100.00
36598;BME280;22607;49.550;11.940;2022-12-11T03:52:39;96057.16;;;-1.75;100.00
36598;BME280;22607;49.550;11.940;2022-12-11T03:55:12;96060.94;;;-1.68;100.00
36598;BME280;22607;49.550;11.940;2022-12-11T03:57:38;96065.88;;;-1.65;100.00
36598;BME280;22607;49.550;11.940;2022-12-11T04:00:09;96057.31;;;-1.65;100.00
36598;BME280;22607;49.550;11.940;2022-12-11T04:02:36;96055.09;;;-1.70;100.00
36598;BME280;22607;49.550;11.940;2022-12-11T04:05:04;96057.19;;;-1.64;100.00
36598;BME280;22607;49.550;11.940;2022-12-11T04:07:31;96058.56;;;-1.71;100.00
36598;BME280;22607;49.550;11.940;2022-12-11T04:09:58;96060.94;;;-1.68;100.00
36598;BME280;22607;49.550;11.940;2022-12-11T04:14:53;96057.41;;;-1.78;100.00
36598;BME280;22607;49.550;11.940;2022-12-11T04:17:29;96065.47;;;-1.83;100.00
36598;BME280;22607;49.550;11.940;2022-12-11T04:20:15;96067.13;;;-1.82;100.00
36598;BME280;22607;49.550;11.940;2022-12-11T04:23:02;96065.72;;;-1.86;100.00
36598;BME280;22607;49.550;11.940;2022-12-11T04:26:08;96065.94;;;-1.89;100.00
36598;BME280;22607;49.550;11.940;2022-12-11T04:28:35;96064.41;;;-1.92;100.00
36598;BME280;22607;49.550;11.940;2022-12-11T04:31:02;96058.31;;;-1.91;100.00
36598;BME280;22607;49.550;11.940;2022-12-11T04:33:28;96061.59;;;-1.89;100.00
36598;BME280;22607;49.550;11.940;2022-12-11T04:36:00;96063.00;;;-1.85;100.00
36598;BME280;22607;49.550;11.940;2022-12-11T04:38:26;96056.22;;;-1.86;100.00
36598;BME280;22607;49.550;11.940;2022-12-11T04:40:57;96059.03;;;-1.89;100.00
36598;BME280;22607;49.550;11.940;2022-12-11T04:43:23;96063.69;;;-1.94;100.00
36598;BME280;22607;49.550;11.940;2022-12-11T04:45:49;96052.47;;;-1.93;100.00
36598;BME280;22607;49.550;11.940;2022-12-11T04:48:16;96049.53;;;-1.88;100.00
36598;BME280;22607;49.550;11.940;2022-12-11T04:50:42;96038.19;;;-1.86;100.00
36598;BME280;22607;49.550;11.940;2022-12-11T04:53:08;96041.38;;;-1.82;100.00
36598;BME280;22607;49.550;11.940;2022-12-11T04:55:35;96037.97;;;-1.82;100.00
36598;BME280;22607;49.550;11.940;2022-12-11T04:58:01;96048.59;;;-1.87;100.00
36598;BME280;22607;49.550;11.940;2022-12-11T05:00:27;96048.38;;;-1.95;100.00
36598;BME280;22607;49.550;11.940;2022-12-11T05:02:54;96043.34;;;-1.97;100.00
36598;BME280;22607;49.550;11.940;2022-12-11T05:05:21;96040.28;;;-2.02;100.00
36598;BME280;22607;49.550;11.940;2022-12-11T05:07:48;96037.44;;;-2.11;100.00
36598;BME280;22607;49.550;11.940;2022-12-11T05:10:14;96042.59;;;-2.11;100.00
36598;BME280;22607;49.550;11.940;2022-12-11T05:12:42;96037.66;;;-2.14;100.00
36598;BME280;22607;49.550;11.940;2022-12-11T05:15:08;96037.66;;;-2.14;100.00
36598;BME280;22607;49.550;11.940;2022-12-11T05:17:35;96039.28;;;-2.13;100.00
36598;BME280;22607;49.550;11.940;2022-12-11T05:20:01;96044.44;;;-2.13;100.00
36598;BME280;22607;49.550;11.940;2022-12-11T05:22:29;96037.44;;;-2.11;100.00
36598;BME280;22607;49.550;11.940;2022-12-11T05:24:56;96039.06;;;-2.09;100.00
36598;BME280;22607;49.550;11.940;2022-12-11T05:27:22;96038.59;;;-2.15;100.00
36598;BME280;22607;49.550;11.940;2022-12-11T05:29:49;96037.06;;;-2.17;100.00
36598;BME280;22607;49.550;11.940;2022-12-11T05:32:21;96036.03;;;-2.15;100.00
36598;BME280;22607;49.550;11.940;2022-12-11T05:34:48;96027.81;;;-2.20;100.00
36598;BME280;22607;49.550;11.940;2022-12-11T05:37:15;96032.50;;;-2.25;100.00
36598;BME280;22607;49.550;11.940;2022-12-11T05:39:41;96036.53;;;-2.34;100.00
36598;BME280;22607;49.550;11.940;2022-12-11T05:42:08;96028.81;;;-2.34;100.00
36598;BME280;22607;49.550;11.940;2022-12-11T05:44:34;96030.13;;;-2.28;100.00
36598;BME280;22607;49.550;11.940;2022-12-11T05:47:00;96020.44;;;-2.25;100.00
36598;BME280;22607;49.550;11.940;2022-12-11T05:49:27;96028.44;;;-2.41;100.00
36598;BME280;22607;49.550;11.940;2022-12-11T05:51:58;96028.50;;;-2.29;100.00
36598;BME280;22607;49.550;11.940;2022-12-11T05:54:24;96028.03;;;-2.23;100.00
36598;BME280;22607;49.550;11.940;2022-12-11T05:56:51;96026.88;;;-2.30;100.00
36598;BME280;22607;49.550;11.940;2022-12-11T05:59:17;96023.91;;;-2.37;100.00
36598;BME280;22607;49.550;11.940;2022-12-11T06:01:44;96022.47;;;-2.17;100.00
36598;BME280;22607;49.550;11.940;2022-12-11T06:04:12;96018.22;;;-2.18;100.00
36598;BME280;22607;49.550;11.940;2022-12-11T06:06:39;96021.78;;;-2.07;100.00
36598;BME280;22607;49.550;11.940;2022-12-11T06:09:05;96023.91;;;-2.01;100.00
36598;BME280;22607;49.550;11.940;2022-12-11T06:11:32;96023.44;;;-1.95;100.00
36598;BME280;22607;49.550;11.940;2022-12-11T06:13:59;96022.69;;;-2.08;100.00
36598;BME280;22607;49.550;11.940;2022-12-11T06:16:26;96028.09;;;-2.00;100.00
36598;BME280;22607;49.550;11.940;2022-12-11T06:18:52;96013.34;;;-2.09;100.00
36598;BME280;22607;49.550;11.940;2022-12-11T06:21:27;96020.44;;;-2.25;100.00
36598;BME280;22607;49.550;11.940;2022-12-11T06:23:56;96016.94;;;-2.23;100.00
36598;BME280;22607;49.550;11.940;2022-12-11T06:26:22;96016.47;;;-2.29;100.00
36598;BME280;22607;49.550;11.940;2022-12-11T06:28:50;96012.97;;;-2.28;100.00
36598;BME280;22607;49.550;11.940;2022-12-11T06:31:16;96024.09;;;-2.16;100.00
36598;BME280;22607;49.550;11.940;2022-12-11T06:33:43;96027.81;;;-2.20;100.00
36598;BME280;22607;49.550;11.940;2022-12-11T06:36:10;96040.00;;;-2.11;100.00
36598;BME280;22607;49.550;11.940;2022-12-11T06:38:37;96031.84;;;-2.04;100.00
36598;BME280;22607;49.550;11.940;2022-12-11T06:41:04;96034.44;;;-1.93;100.00
36598;BME280;22607;49.550;11.940;2022-12-11T06:43:31;96037.13;;;-1.94;100.00
36598;BME280;22607;49.550;11.940;2022-12-11T06:45:58;96040.28;;;-2.02;100.00
36598;BME280;22607;49.550;11.940;2022-12-11T06:48:29;96040.69;;;-2.20;100.00
36598;BME280;22607;49.550;11.940;2022-12-11T06:50:56;96037.97;;;-2.30;100.00
36598;BME280;22607;49.550;11.940;2022-12-11T06:53:23;96042.13;;;-2.04;100.00
36598;BME280;22607;49.550;11.940;2022-12-11T06:55:49;96040.66;;;-1.95;100.00
36598;BME280;22607;49.550;11.940;2022-12-11T06:58:16;96038.63;;;-2.03;100.00
36598;BME280;22607;49.550;11.940;2022-12-11T07:00:45;96034.44;;;-1.93;100.00
36598;BME280;22607;49.550;11.940;2022-12-11T07:03:12;96030.47;;;-1.86;100.00
36598;BME280;22607;49.550;11.940;2022-12-11T07:05:45;96032.25;;;-1.86;100.00
36598;BME280;22607;49.550;11.940;2022-12-11T07:08:12;96028.00;;;-1.87;100.00
36598;BME280;22607;49.550;11.940;2022-12-11T07:10:38;96033.41;;;-1.90;100.00
36598;BME280;22607;49.550;11.940;2022-12-11T07:13:05;96033.88;;;-1.85;100.00
36598;BME280;22607;49.550;11.940;2022-12-11T07:15:31;96024.38;;;-1.85;100.00
36598;BME280;22607;49.550;11.940;2022-12-11T07:18:05;96021.09;;;-1.98;100.00
36598;BME280;22607;49.550;11.940;2022-12-11T07:20:31;96020.16;;;-1.86;100.00
36598;BME280;22607;49.550;11.940;2022-12-11T07:22:58;96025.94;;;-1.82;100.00
36598;BME280;22607;49.550;11.940;2022-12-11T07:25:24;96027.53;;;-1.92;100.00
36598;BME280;22607;49.550;11.940;2022-12-11T07:27:52;96034.88;;;-1.99;100.00
36598;BME280;22607;49.550;11.940;2022-12-11T07:30:20;96038.03;;;-2.07;100.00
36598;BME280;22607;49.550;11.940;2022-12-11T07:32:46;96029.88;;;-2.01;100.00
36598;BME280;22607;49.550;11.940;2022-12-11T07:35:12;96049.97;;;-2.42;100.00
36598;BME280;22607;49.550;11.940;2022-12-11T07:37:40;96050.63;;;-2.15;100.00
36598;BME280;22607;49.550;11.940;2022-12-11T07:40:06;96056.91;;;-2.31;100.00
36598;BME280;22607;49.550;11.940;2022-12-11T07:42:33;96047.75;;;-2.11;100.00
36598;BME280;22607;49.550;11.940;2022-12-11T07:45:00;96048.13;;;-2.40;100.00
36598;BME280;22607;49.550;11.940;2022-12-11T07:47:27;96051.66;;;-2.29;100.00
36598;BME280;22607;49.550;11.940;2022-12-11T07:49:53;96042.44;;;-2.20;100.00
36598;BME280;22607;49.550;11.940;2022-12-11T07:52:19;96045.72;;;-2.18;100.00
36598;BME280;22607;49.550;11.940;2022-12-11T07:54:46;96040.84;;;-2.10;100.00
36598;BME280;22607;49.550;11.940;2022-12-11T07:57:12;96046.09;;;-2.12;100.00
36598;BME280;22607;49.550;11.940;2022-12-11T07:59:39;96048.69;;;-2.00;100.00
36598;BME280;22607;49.550;11.940;2022-12-11T08:02:08;96046.16;;;-1.89;100.00
36598;BME280;22607;49.550;11.940;2022-12-11T08:04:35;96044.75;;;-1.93;100.00
36598;BME280;22607;49.550;11.940;2022-12-11T08:07:02;96046.38;;;-1.92;100.00
36598;BME280;22607;49.550;11.940;2022-12-11T08:09:28;96042.28;;;-1.83;100.00
36598;BME280;22607;49.550;11.940;2022-12-11T08:11:54;96036.56;;;-1.87;100.00
36598;BME280;22607;49.550;11.940;2022-12-11T08:14:30;96033.63;;;-1.93;100.00
36598;BME280;22607;49.550;11.940;2022-12-11T08:16:56;96045.53;;;-1.92;100.00
36598;BME280;22607;49.550;11.940;2022-12-11T08:19:29;96043.53;;;-2.00;100.00
36598;BME280;22607;49.550;11.940;2022-12-11T08:21:56;96047.75;;;-2.11;100.00
36598;BME280;22607;49.550;11.940;2022-12-11T08:24:23;96050.38;;;-1.76;100.00
36598;BME280;22607;49.550;11.940;2022-12-11T08:26:49;96047.28;;;-2.04;100.00
36598;BME280;22607;49.550;11.940;2022-12-11T08:29:16;96044.97;;;-1.85;100.00
36598;BME280;22607;49.550;11.940;2022-12-11T08:31:44;96047.31;;;-1.93;100.00
36598;BME280;22607;49.550;11.940;2022-12-11T08:34:11;96050.50;;;-2.25;100.00
36598;BME280;22607;49.550;11.940;2022-12-11T08:36:38;96051.25;;;-2.12;100.00
36598;BME280;22607;49.550;11.940;2022-12-11T08:39:08;96055.28;;;-1.85;100.00
36598;BME280;22607;49.550;11.940;2022-12-11T08:41:34;96064.63;;;-1.95;100.00
36598;BME280;22607;49.550;11.940;2022-12-11T08:44:01;96059.72;;;-1.87;100.00
36598;BME280;22607;49.550;11.940;2022-12-11T08:46:30;96065.81;;;-1.88;100.00
36598;BME280;22607;49.550;11.940;2022-12-11T08:48:57;96065.38;;;-1.70;100.00
36598;BME280;22607;49.550;11.940;2022-12-11T08:51:24;96061.66;;;-1.54;100.00
36598;BME280;22607;49.550;11.940;2022-12-11T08:53:55;96065.81;;;-1.88;100.00
36598;BME280;22607;49.550;11.940;2022-12-11T08:56:22;96068.13;;;-1.85;100.00
36598;BME280;22607;49.550;11.940;2022-12-11T08:58:49;96066.97;;;-1.80;100.00
36598;BME280;22607;49.550;11.940;2022-12-11T09:01:17;96068.56;;;-1.55;100.00
36598;BME280;22607;49.550;11.940;2022-12-11T09:03:53;96066.00;;;-1.32;100.00
36598;BME280;22607;49.550;11.940;2022-12-11T09:06:27;96060.13;;;-1.23;100.00
36598;BME280;22607;49.550;11.940;2022-12-11T09:08:54;96054.16;;;-1.35;100.00
36598;BME280;22607;49.550;11.940;2022-12-11T09:11:31;96057.88;;;-0.93;100.00
36598;BME280;22607;49.550;11.940;2022-12-11T09:13:58;96065.75;;;-1.17;100.00
36598;BME280;22607;49.550;11.940;2022-12-11T09:16:33;96066.34;;;-0.91;100.00
36598;BME280;22607;49.550;11.940;2022-12-11T09:19:02;96067.13;;;-0.79;95.99
36598;BME280;22607;49.550;11.940;2022-12-11T09:21:29;96062.56;;;-0.87;95.77
36598;BME280;22607;49.550;11.940;2022-12-11T09:23:57;96059.88;;;-0.85;98.25
36598;BME280;22607;49.550;11.940;2022-12-11T09:26:24;96059.19;;;-0.87;93.15
36598;BME280;22607;49.550;11.940;2022-12-11T09:28:50;96053.09;;;-0.98;92.84
36598;BME280;22607;49.550;11.940;2022-12-11T09:31:19;96056.97;;;-1.03;91.79
36598;BME280;22607;49.550;11.940;2022-12-11T09:33:48;96049.59;;;-0.52;87.87
36598;BME280;22607;49.550;11.940;2022-12-11T09:36:15;96051.78;;;-0.92;87.22
36598;BME280;22607;49.550;11.940;2022-12-11T09:38:43;96050.94;;;-0.70;88.59
36598;BME280;22607;49.550;11.940;2022-12-11T09:43:46;96046.13;;;-0.63;90.08
36598;BME280;22607;49.550;11.940;2022-12-11T09:46:15;96050.56;;;-0.65;88.57
36598;BME280;22607;49.550;11.940;2022-12-11T09:48:43;96050.00;;;-0.69;87.82
36598;BME280;22607;49.550;11.940;2022-12-11T09:51:17;96053.19;;;-0.76;87.68
36598;BME280;22607;49.550;11.940;2022-12-11T09:53:46;96043.56;;;-0.74;88.96
36598;BME280;22607;49.550;11.940;2022-12-11T09:56:17;96042.16;;;-0.67;87.82
36598;BME280;22607;49.550;11.940;2022-12-11T09:58:55;96036.50;;;-0.61;85.25
36598;BME280;22607;49.550;11.940;2022-12-11T10:06:32;96025.66;;;-0.22;85.38
36598;BME280;22607;49.550;11.940;2022-12-11T10:16:42;96014.53;;;-0.22;84.58
36598;BME280;22607;49.550;11.940;2022-12-11T10:19:19;96010.72;;;0.24;80.78
36598;BME280;22607;49.550;11.940;2022-12-11T10:21:49;96011.69;;;0.23;78.27
36598;BME280;22607;49.550;11.940;2022-12-11T10:24:19;96008.28;;;0.23;80.28
36598;BME280;22607;49.550;11.940;2022-12-11T10:27:18;96004.38;;;0.07;77.59
36598;BME280;22607;49.550;11.940;2022-12-11T10:29:45;96003.34;;;0.41;77.64
36598;BME280;22607;49.550;11.940;2022-12-11T10:32:30;95994.81;;;0.50;76.95
36598;BME280;22607;49.550;11.940;2022-12-11T10:35:02;95998.16;;;0.72;75.92
36598;BME280;22607;49.550;11.940;2022-12-11T10:37:30;95993.81;;;1.34;72.48
36598;BME280;22607;49.550;11.940;2022-12-11T10:39:57;95992.13;;;1.92;70.22
36598;BME280;22607;49.550;11.940;2022-12-11T10:42:23;95987.47;;;2.05;67.80
36598;BME280;22607;49.550;11.940;2022-12-11T10:44:59;95985.47;;;1.99;66.24
36598;BME280;22607;49.550;11.940;2022-12-11T10:47:27;95974.94;;;2.48;64.07
36598;BME280;22607;49.550;11.940;2022-12-11T10:49:58;95979.72;;;1.95;64.19
36598;BME280;22607;49.550;11.940;2022-12-11T10:52:31;95967.16;;;2.01;65.21
36598;BME280;22607;49.550;11.940;2022-12-11T10:57:58;95977.47;;;0.72;67.68
36598;BME280;22607;49.550;11.940;2022-12-11T11:00:29;95970.50;;;1.34;67.99
36598;BME280;22607;49.550;11.940;2022-12-11T11:02:57;95974.28;;;1.99;70.14
36598;BME280;22607;49.550;11.940;2022-12-11T11:05:37;95967.84;;;2.13;66.79
36598;BME280;22607;49.550;11.940;2022-12-11T11:08:17;95959.44;;;2.29;66.28
36598;BME280;22607;49.550;11.940;2022-12-11T11:10:56;95953.84;;;2.43;65.90
36598;BME280;22607;49.550;11.940;2022-12-11T11:13:24;95957.47;;;2.51;63.33
36598;BME280;22607;49.550;11.940;2022-12-11T11:16:02;95955.88;;;2.02;63.68
36598;BME280;22607;49.550;11.940;2022-12-11T11:18:30;95953.75;;;1.18;65.25
36598;BME280;22607;49.550;11.940;2022-12-11T11:20:57;95954.50;;;0.79;67.27
36598;BME280;22607;49.550;11.940;2022-12-11T11:23:24;95949.81;;;0.63;67.80
36598;BME280;22607;49.550;11.940;2022-12-11T11:26:00;95950.47;;;0.45;72.17
36598;BME280;22607;49.550;11.940;2022-12-11T11:28:35;95937.50;;;0.35;72.63
36598;BME280;22607;49.550;11.940;2022-12-11T11:31:07;95927.72;;;0.39;73.69
36598;BME280;22607;49.550;11.940;2022-12-11T11:33:34;95934.25;;;0.33;74.20
36598;BME280;22607;49.550;11.940;2022-12-11T11:36:03;95931.53;;;0.04;76.33
36598;BME280;22607;49.550;11.940;2022-12-11T11:41:42;95928.13;;;0.44;75.26
36598;BME280;22607;49.550;11.940;2022-12-11T11:44:13;95926.81;;;0.50;75.53
36598;BME280;22607;49.550;11.940;2022-12-11T11:46:41;95928.19;;;0.13;76.47
36598;BME280;22607;49.550;11.940;2022-12-11T11:51:39;95921.28;;;0.23;79.20
36598;BME280;22607;49.550;11.940;2022-12-11T11:54:27;95914.22;;;0.25;81.04
36598;BME280;22607;49.550;11.940;2022-12-11T11:56:56;95919.31;;;-0.25;84.13
36598;BME280;22607;49.550;11.940;2022-12-11T12:01:53;95908.38;;;-0.08;83.54
36598;BME280;22607;49.550;11.940;2022-12-11T12:04:20;95921.34;;;-0.19;84.49
36598;BME280;22607;49.550;11.940;2022-12-11T12:06:59;95913.19;;;-0.24;87.34
36598;BME280;22607;49.550;11.940;2022-12-11T12:17:34;95901.06;;;-0.03;84.22
36598;BME280;22607;49.550;11.940;2022-12-11T12:22:50;95903.13;;;0.04;81.23
36598;BME280;22607;49.550;11.940;2022-12-11T12:28:04;95903.94;;;0.04;80.86
36598;BME280;22607;49.550;11.940;2022-12-11T12:30:58;95900.94;;;-0.01;82.18
36598;BME280;22607;49.550;11.940;2022-12-11T12:33:34;95891.19;;;0.12;77.26
36598;BME280;22607;49.550;11.940;2022-12-11T12:36:38;95894.84;;;0.00;78.31
36598;BME280;22607;49.550;11.940;2022-12-11T12:39:00;95896.00;;;0.17;78.53
36598;BME280;22607;49.550;11.940;2022-12-11T12:41:32;95893.34;;;0.07;79.10
36598;BME280;22607;49.550;11.940;2022-12-11T12:44:05;95890.25;;;0.13;75.51
36598;BME280;22607;49.550;11.940;2022-12-11T12:51:54;95890.22;;;0.04;77.43
36598;BME280;22607;49.550;11.940;2022-12-11T12:54:22;95892.03;;;0.13;76.58
36598;BME280;22607;49.550;11.940;2022-12-11T12:56:51;95889.44;;;0.13;78.65
36598;BME280;22607;49.550;11.940;2022-12-11T12:59:25;95885.53;;;-0.12;78.72
36598;BME280;22607;49.550;11.940;2022-12-11T13:01:56;95891.06;;;0.14;79.82
36598;BME280;22607;49.550;11.940;2022-12-11T13:07:21;95892.97;;;0.12;78.97
36598;BME280;22607;49.550;11.940;2022-12-11T13:12:43;95889.69;;;0.00;76.55
36598;BME280;22607;49.550;11.940;2022-12-11T13:17:51;95884.66;;;0.08;75.68
36598;BME280;22607;49.550;11.940;2022-12-11T13:20:21;95885.22;;;-0.19;75.43
36598;BME280;22607;49.550;11.940;2022-12-11T13:25:23;95884.88;;;-0.05;76.40
36598;BME280;22607;49.550;11.940;2022-12-11T13:27:51;95885.56;;;-0.03;73.77
36598;BME280;22607;49.550;11.940;2022-12-11T13:35:17;95873.81;;;-0.17;75.93
36598;BME280;22607;49.550;11.940;2022-12-11T13:37:43;95884.97;;;-0.16;76.38
36598;BME280;22607;49.550;11.940;2022-12-11T13:40:22;95883.72;;;0.09;77.40
36598;BME280;22607;49.550;11.940;2022-12-11T13:42:50;95887.53;;;0.05;77.01
36598;BME280;22607;49.550;11.940;2022-12-11T13:45:29;95893.13;;;0.20;75.66
36598;BME280;22607;49.550;11.940;2022-12-11T13:47:58;95883.94;;;-0.04;79.01
36598;BME280;22607;49.550;11.940;2022-12-11T13:50:28;95894.53;;;-0.07;75.06
36598;BME280;22607;49.550;11.940;2022-12-11T13:52:57;95899.19;;;-0.01;78.59
36598;BME280;22607;49.550;11.940;2022-12-11T13:55:28;95895.78;;;-0.22;76.38
36598;BME280;22607;49.550;11.940;2022-12-11T13:57:55;95899.44;;;-0.25;74.97
36598;BME280;22607;49.550;11.940;2022-12-11T14:00:22;95906.25;;;-0.45;73.68
36598;BME280;22607;49.550;11.940;2022-12-11T14:02:50;95899.34;;;-0.23;72.85
36598;BME280;22607;49.550;11.940;2022-12-11T14:05:17;95911.59;;;-0.16;70.05
36598;BME280;22607;49.550;11.940;2022-12-11T14:07:48;95904.38;;;-0.43;72.04
36598;BME280;22607;49.550;11.940;2022-12-11T14:10:25;95906.75;;;-0.30;71.43
36598;BME280;22607;49.550;11.940;2022-12-11T14:15:25;95904.81;;;-0.59;70.90
36598;BME280;22607;49.550;11.940;2022-12-11T14:17:53;95909.47;;;-0.53;71.16